METAR Data
IDs: Format: Raw Decoded Include TAF

Data at: 2041 UTC 21 Sep 2021

KHRO 212005Z AUTO 33011KT 10SM FEW024 OVC031 18/13 A3018 RMK AO2 T01830133
KHRO 211953Z AUTO 34009G16KT 10SM FEW017 BKN024 OVC029 18/14 A3018 RMK AO2 SLP210 T01830139
KHRO 211921Z AUTO 33007KT 10SM SCT014 BKN022 OVC027 18/15 A3019 RMK AO2 T01780150
KHRO 211853Z AUTO 33008KT 10SM BKN012 OVC022 17/15 A3018 RMK AO2 RAE31 SLP211 P0001 T01670150
KHRO 211838Z AUTO 31006KT 10SM OVC010 17/15 A3018 RMK AO2 RAE31 P0001 T01670150
KHRO 211827Z AUTO 32005KT 5SM -RA BR BKN006 OVC012 16/15 A3018 RMK AO2 CIG 004V010 P0001 T01610150
KHRO 211810Z AUTO 32007KT 2SM -RA BR OVC005 16/15 A3017 RMK AO2 CIG 003V009 P0001 T01610150
KHRO 211803Z AUTO 33007KT 1 3/4SM -RA BR BKN005 OVC012 17/16 A3018 RMK AO2 CIG 003V009 P0000 T01670156
KHRO 211753Z AUTO 33006KT 2SM -RA BR BKN005 OVC012 17/16 A3018 RMK AO2 RAB37 CIG 004V008 SLP207 P0001 60015 T01670156 10183 20167 51018
KHRO 211730Z AUTO 33010KT 3SM BR OVC005 17/16 A3017 RMK AO2 CIG 004V010 T01670156
KHRO 211723Z AUTO 32006KT 2 1/2SM BR OVC007 17/16 A3017 RMK AO2 CIG 005V012 T01670156
KHRO 211653Z AUTO 33009KT 10SM OVC009 17/15 A3017 RMK AO2 CIG 007V012 SLP204 T01720150
KHRO 211553Z AUTO 34008KT 10SM OVC009 17/16 A3014 RMK AO2 CIG 007V012 SLP196 T01720156
KHRO 211453Z AUTO 34008KT 10SM OVC007 17/16 A3012 RMK AO2 CIG 005V011 SLP187 60014 T01720156 50011
KHRO 211444Z AUTO 34010KT 10SM OVC007 17/16 A3012 RMK AO2 CIG 003V009 T01720156
KHRO 211353Z AUTO 33007KT 4SM BR BKN003 OVC007 17/16 A3012 RMK AO2 LTG DSNT SE RAE07 CIG 002V006 SLP188 P0000 T01670161
KHRO 211253Z AUTO 34006KT 4SM +RA BR BKN005 BKN009 OVC015 17/17 A3011 RMK AO2 LTG DSNT E-S SLP183 P0014 T01720167
KHRO 211229Z AUTO 35006KT 7SM RA BKN004 BKN011 OVC034 18/17 A3009 RMK AO2 LTG DSNT SE-SW P0007 T01780172
KHRO 211216Z AUTO 30004KT 4SM VCTS RA BR FEW004 BKN011 OVC035 18/17 A3010 RMK AO2 LTG DSNT ALQDS P0005 T01830172
KHRO 211153Z AUTO 00000KT 4SM -RA BR FEW006 BKN012 OVC031 18/17 A3009 RMK AO2 LTG DSNT ALQDS RAE19B29 TSB12E27B37E52 SLP174 P0017 60091 70091 T01830172 10250 20183 53030
KHRO 211144Z AUTO 00000KT 1 3/4SM +TSRA BR FEW006 BKN010 OVC031 18/17 A3007 RMK AO2 VIS 3/4V4 LTG DSNT ALQDS RAE19B29 TSB12E27B37 P0014 T01830172
KHRO 211137Z AUTO VRB03KT 4SM +TSRA BR SCT007 BKN010 OVC042 18/17 A3006 RMK AO2 LTG DSNT ALQDS RAE19B29 TSB12E27B37 P0006 T01830172
KHRO 211127Z AUTO VRB04KT 10SM VCTS BKN007 BKN024 OVC033 18/17 A3007 RMK AO2 LTG DSNT ALQDS RAE19 TSB12E27 CIG 005V014 P0002 T01830172
KHRO 211118Z AUTO 01003KT 10SM -TSRA SCT005 BKN022 OVC041 18/18 A3005 RMK AO2 LTG DSNT ALQDS TSB12 P0002 T01830178
KHRO 211102Z AUTO VRB05KT 5SM VCTS RA BR SCT005 OVC022 18/17 A3006 RMK AO2 LTG DSNT ALQDS P0002 T01830172
KHRO 211053Z AUTO 32009KT 5SM VCTS -RA BR BKN006 BKN009 OVC019 18/18 A3005 RMK AO2 LTG DSNT ALQDS TSB07E41 SLP162 P0029 T01830178
KHRO 211043Z AUTO 30010G15KT 5SM VCTS -RA BR BKN004 BKN009 OVC021 19/18 A3005 RMK AO2 LTG DSNT ALQDS TSB07E41 PRESRR P0028 T01890183
KHRO 211034Z AUTO 00000KT 2SM +TSRA BR FEW007 BKN011 OVC024 19/19 A3003 RMK AO2 LTG DSNT ALQDS TSB07 P0028 T01940189
KHRO 211017Z AUTO 25007KT 1 3/4SM +TSRA BR BKN016 BKN044 OVC100 20/19 A3004 RMK AO2 VIS 1V5 LTG DSNT ALQDS TSB07 PRESRR P0011 T02000189
KHRO 211013Z AUTO 00000KT 4SM TSRA BR BKN016 BKN044 OVC100 20/19 A3002 RMK AO2 LTG DSNT ALQDS TSB07 P0003 T02000189
KHRO 210953Z AUTO 17005KT 10SM VCTS -RA FEW041 FEW050 BKN100 20/19 A2999 RMK AO2 LTG DSNT ALQDS SLP139 P0002 T02000189
KHRO 210923Z AUTO 00000KT 10SM -RA FEW090 BKN110 20/18 A2999 RMK AO2 LTG DSNT ALQDS P0001 T02000183
KHRO 210908Z AUTO 00000KT 10SM VCTS -RA SCT026 SCT050 BKN110 20/19 A3000 RMK AO2 LTG DSNT E-SW P0000 T02000189
KHRO 210853Z AUTO 18003KT 9SM -RA SCT027 BKN100 BKN110 20/19 A2999 RMK AO2 LTG DSNT ALQDS SLP139 P0002 60043 T02000189 50019
KHRO 210826Z AUTO 15005KT 8SM -RA BKN110 20/19 A2996 RMK AO2 LTG DSNT ALQDS P0001 T02000194
KHRO 210753Z AUTO 26003KT 3SM VCTS RA BR FEW020 BKN070 OVC110 20/19 A2999 RMK AO2 LTG DSNT ALQDS TSE21 SLP139 P0038 T02000194
KHRO 210742Z AUTO 00000KT 5SM VCTS -RA BR SCT020 BKN048 OVC110 20/19 A3001 RMK AO2 LTG DSNT ALQDS TSE21 P0035 T02000194
KHRO 210736Z AUTO 29003KT 3SM VCTS +RA BR BKN019 BKN049 OVC110 20/19 A3001 RMK AO2 LTG DSNT ALQDS TSE21 P0034 T02000194
KHRO 210730Z AUTO 31003KT 3SM VCTS +RA BR FEW012 BKN046 OVC070 20/19 A3001 RMK AO2 LTG DSNT ALQDS TSE21 P0032 T02000194
KHRO 210726Z AUTO 33004KT 2 1/2SM VCTS +RA BR FEW008 BKN023 OVC070 20/19 A3000 RMK AO2 LTG DSNT ALQDS TSE21 P0031 T02000194
KHRO 210716Z AUTO 33006KT 4SM +TSRA BR FEW008 BKN025 OVC031 20/19 A3002 RMK AO2 LTG DSNT ALQDS PRESRR P0025 T02000189
KHRO 210712Z AUTO 33007KT 3SM TSRA BR SCT025 OVC032 20/19 A3001 RMK AO2 LTG DSNT ALQDS P0023 T02000189
KHRO 210658Z AUTO 31005KT 1 3/4SM +TSRA BR OVC030 21/19 A2999 RMK AO2 LTG DSNT ALQDS P0008 T02110189
KHRO 210653Z AUTO 29009KT 5SM TSRA OVC030 22/18 A3000 RMK AO2 LTG DSNT ALQDS RAB29E41B50 TSB40 PRESRR SLP142 P0003 T02220183
KHRO 210646Z AUTO 34007G17KT 10SM TS OVC032 24/18 A2999 RMK AO2 LTG DSNT ALQDS RAB29E41 TSB40 P0000 T02390178
KHRO 210638Z AUTO 34011G18KT 10SM VCTS -RA SCT029 BKN034 24/19 A2998 RMK AO2 LTG DSNT ALQDS RAB29 PRESRR P0000 T02440189
KHRO 210553Z AUTO 12003KT 10SM CLR 24/19 A2993 RMK AO2 LTG DSNT W-N SLP118 T02390194 10283 20233 403220189 53007
KHRO 210453Z AUTO 17004KT 10SM CLR 23/19 A2992 RMK AO2 SLP116 T02330189
KHRO 210353Z AUTO 17005KT 10SM CLR 24/19 A2992 RMK AO2 SLP113 T02390189
KHRO 210253Z AUTO 13006KT 10SM CLR 26/19 A2991 RMK AO2 SLP113 T02560189 53014
KHRO 210153Z AUTO 13006KT 10SM CLR 26/19 A2990 RMK AO2 SLP110 T02560189
KHRO 210053Z AUTO 15007KT 10SM CLR 27/18 A2987 RMK AO2 SLP100 T02670183
KHRO 202353Z AUTO 17008KT 10SM CLR 28/19 A2987 RMK AO2 SLP099 T02830189 10322 20283 50001
KHRO 202253Z AUTO 15011KT 10SM CLR 31/19 A2987 RMK AO2 SLP099 T03060189
KHRO 202153Z AUTO 15012KT 10SM CLR 32/18 A2987 RMK AO2 SLP098 T03170183
KHRO 202053Z AUTO 16010KT 10SM CLR 32/18 A2987 RMK AO2 SLP096 T03220183 56017